Time;durP1;ratioP1;P1;durP2;ratioP2;P2;SDS_P1;SDS_P2;PMS_P1;PMS_P2;Temp;Humidity;BMP_temperature;BMP_pressure;BME280_temperature;BME280_humidity;BME280_pressure;Samples;Min_cycle;Max_cycle;Signal;HPM_P1;HPM_P2
2022/01/13 00:01:52;;;;;;;;;;;24.00;99.90;;;;;;5073138;28;19952;-71
2022/01/13 00:04:18;;;;;;;;;;;24.00;99.90;;;;;;5072968;28;19999;-71
2022/01/13 00:06:45;;;;;;;;;;;23.90;99.90;;;;;;5073122;28;19952;-71
2022/01/13 00:09:13;;;;;;;;;;;23.90;99.90;;;;;;5105343;28;19912;-71
2022/01/13 00:11:39;;;;;;;;;;;23.90;99.90;;;;;;5073287;28;19916;-71
2022/01/13 00:16:55;;;;;;;;;;;23.80;99.90;;;;;;5073054;28;20287;-71
2022/01/13 00:19:34;;;;;;;;;;;23.80;99.90;;;;;;5072999;28;19934;-71
2022/01/13 00:24:53;;;;;;;;;;;23.70;99.90;;;;;;5041221;28;20015;-71
2022/01/13 00:27:22;;;;;;;;;;;23.80;99.90;;;;;;5072925;28;19984;-70
2022/01/13 00:29:49;;;;;;;;;;;24.00;99.90;;;;;;5072547;28;19912;-70
2022/01/13 00:32:16;;;;;;;;;;;24.10;99.90;;;;;;5072716;28;19970;-71
2022/01/13 00:34:43;;;;;;;;;;;24.20;99.90;;;;;;5072782;28;19915;-71
2022/01/13 00:37:10;;;;;;;;;;;24.20;99.90;;;;;;5072763;28;19915;-71
2022/01/13 00:39:37;;;;;;;;;;;24.20;99.90;;;;;;5072681;28;19974;-71
2022/01/13 00:42:04;;;;;;;;;;;24.10;99.90;;;;;;5072397;28;19970;-71
2022/01/13 00:44:36;;;;;;;;;;;24.10;99.90;;;;;;5072481;28;19966;-71
2022/01/13 00:47:05;;;;;;;;;;;24.10;99.90;;;;;;5072555;28;20417;-71
2022/01/13 00:49:31;;;;;;;;;;;24.00;99.90;;;;;;5072586;28;20291;-71
2022/01/13 00:51:58;;;;;;;;;;;24.00;99.90;;;;;;5072354;28;19930;-71
2022/01/13 00:54:25;;;;;;;;;;;24.00;99.90;;;;;;5072742;28;19909;-71
2022/01/13 00:56:51;;;;;;;;;;;24.00;99.90;;;;;;5072251;28;19915;-71
2022/01/13 00:59:18;;;;;;;;;;;24.00;99.90;;;;;;5072514;28;19935;-70
2022/01/13 01:01:48;;;;;;;;;;;23.90;99.90;;;;;;5073196;28;20353;-71
2022/01/13 01:04:16;;;;;;;;;;;23.90;99.90;;;;;;5072378;28;20003;-71
2022/01/13 01:06:43;;;;;;;;;;;23.90;99.90;;;;;;5072345;28;20024;-70
2022/01/13 01:09:21;;;;;;;;;;;23.90;99.90;;;;;;5072446;28;19955;-71
2022/01/13 01:11:50;;;;;;;;;;;23.90;99.90;;;;;;5052067;28;20637;-72
2022/01/13 01:14:18;;;;;;;;;;;23.80;99.90;;;;;;5052345;28;19915;-72
2022/01/13 01:16:45;;;;;;;;;;;23.70;99.90;;;;;;5052228;28;19918;-71
2022/01/13 01:19:13;;;;;;;;;;;23.60;99.90;;;;;;5052495;28;19915;-71
2022/01/13 01:24:27;;;;;;;;;;;23.50;99.90;;;;;;5053634;28;19993;-70
2022/01/13 01:27:00;;;;;;;;;;;23.30;99.90;;;;;;5056717;28;19917;-70
2022/01/13 01:29:35;;;;;;;;;;;23.20;99.90;;;;;;5056674;28;19924;-72
2022/01/13 01:32:05;;;;;;;;;;;22.90;99.90;;;;;;5056652;28;19909;-71
2022/01/13 01:37:01;;;;;;;;;;;22.80;99.90;;;;;;5056524;28;20387;-71
2022/01/13 01:39:28;;;;;;;;;;;22.80;99.90;;;;;;5056537;28;19913;-71
2022/01/13 01:41:56;;;;;;;;;;;22.80;99.90;;;;;;5056345;28;19944;-72
2022/01/13 01:44:30;;;;;;;;;;;22.70;99.90;;;;;;5056217;28;19909;-72
2022/01/13 01:46:58;;;;;;;;;;;22.60;99.90;;;;;;5056022;28;19917;-72
2022/01/13 01:49:26;;;;;;;;;;;22.50;99.90;;;;;;5055861;28;19962;-72
2022/01/13 01:51:57;;;;;;;;;;;22.30;99.90;;;;;;5055729;28;19916;-72
2022/01/13 01:54:24;;;;;;;;;;;22.20;99.90;;;;;;5056015;28;20054;-73
2022/01/13 01:56:51;;;;;;;;;;;22.10;99.90;;;;;;5056894;28;19916;-73
2022/01/13 01:59:20;;;;;;;;;;;22.10;99.90;;;;;;5057018;28;19948;-73
2022/01/13 02:01:48;;;;;;;;;;;22.00;99.90;;;;;;5057313;28;19995;-73
2022/01/13 02:04:15;;;;;;;;;;;21.80;99.90;;;;;;5056550;28;19909;-73
2022/01/13 02:06:44;;;;;;;;;;;21.70;99.90;;;;;;5057274;28;20391;-73
2022/01/13 02:09:11;;;;;;;;;;;21.50;99.90;;;;;;5058567;28;19908;-71
2022/01/13 02:11:43;;;;;;;;;;;21.10;99.90;;;;;;5078966;28;20430;-71
2022/01/13 02:14:35;;;;;;;;;;;20.80;99.90;;;;;;5081291;28;19908;-72
2022/01/13 02:17:05;;;;;;;;;;;20.60;99.90;;;;;;5079390;28;19916;-71
2022/01/13 02:19:33;;;;;;;;;;;20.50;99.90;;;;;;5081346;28;19946;-71
2022/01/13 02:22:00;;;;;;;;;;;20.50;99.90;;;;;;5078977;28;19908;-70
2022/01/13 02:24:28;;;;;;;;;;;20.30;99.90;;;;;;5076371;28;19908;-70
2022/01/13 02:26:55;;;;;;;;;;;20.30;99.90;;;;;;5075944;28;20008;-69
2022/01/13 02:29:22;;;;;;;;;;;20.40;99.90;;;;;;5077008;28;19931;-70
2022/01/13 02:31:48;;;;;;;;;;;20.40;99.90;;;;;;5076060;28;19916;-69
2022/01/13 02:34:16;;;;;;;;;;;20.50;99.90;;;;;;5075835;28;19959;-71
2022/01/13 02:36:46;;;;;;;;;;;20.50;99.90;;;;;;5107474;28;19919;-70
2022/01/13 02:39:13;;;;;;;;;;;20.40;99.90;;;;;;5108161;28;19909;-69
2022/01/13 02:41:39;;;;;;;;;;;20.40;99.90;;;;;;5075537;28;19916;-70
2022/01/13 02:44:15;;;;;;;;;;;20.30;99.90;;;;;;5107962;28;19912;-70
2022/01/13 02:47:09;;;;;;;;;;;20.30;99.90;;;;;;5075237;28;19916;-70
2022/01/13 02:49:31;;;;;;;;;;;20.30;99.90;;;;;;5074670;28;20336;-69
2022/01/13 02:51:57;;;;;;;;;;;20.30;99.90;;;;;;5074929;28;19912;-69
2022/01/13 02:54:24;;;;;;;;;;;20.30;99.90;;;;;;5075423;28;20018;-70
2022/01/13 02:56:52;;;;;;;;;;;20.30;99.90;;;;;;5074963;28;19920;-69
2022/01/13 02:59:19;;;;;;;;;;;20.30;99.90;;;;;;5074724;28;19963;-70
2022/01/13 03:01:46;;;;;;;;;;;20.40;99.90;;;;;;5074593;28;19916;-70
2022/01/13 03:04:12;;;;;;;;;;;20.30;99.90;;;;;;5106921;28;19955;-69
2022/01/13 03:06:41;;;;;;;;;;;20.20;99.90;;;;;;5075709;28;19912;-71
2022/01/13 03:09:13;;;;;;;;;;;20.30;99.90;;;;;;5074855;28;19916;-69
2022/01/13 03:11:42;;;;;;;;;;;20.40;99.90;;;;;;5074520;28;20321;-69
2022/01/13 03:14:10;;;;;;;;;;;20.50;99.90;;;;;;5074145;28;20363;-68
2022/01/13 03:16:37;;;;;;;;;;;20.60;99.90;;;;;;5074395;28;19948;-70
2022/01/13 03:19:04;;;;;;;;;;;20.60;99.90;;;;;;5074269;28;20299;-69
2022/01/13 03:21:31;;;;;;;;;;;20.60;99.90;;;;;;5074123;28;19908;-69
2022/01/13 03:23:58;;;;;;;;;;;20.70;99.90;;;;;;5073964;28;20380;-69
2022/01/13 03:26:25;;;;;;;;;;;20.70;99.90;;;;;;5074092;28;19921;-69
2022/01/13 03:28:54;;;;;;;;;;;20.80;99.90;;;;;;5074038;28;20478;-69
2022/01/13 03:31:24;;;;;;;;;;;20.90;99.90;;;;;;5073968;28;20367;-70
2022/01/13 03:33:53;;;;;;;;;;;20.90;99.90;;;;;;5073573;28;19994;-70
2022/01/13 03:36:19;;;;;;;;;;;21.00;99.90;;;;;;5073890;28;19980;-70
2022/01/13 03:38:46;;;;;;;;;;;21.10;99.90;;;;;;5073951;28;19944;-70
2022/01/13 03:41:13;;;;;;;;;;;21.20;99.90;;;;;;5073957;28;19909;-69
2022/01/13 03:43:40;;;;;;;;;;;21.30;99.90;;;;;;5073712;28;20003;-69
2022/01/13 03:46:07;;;;;;;;;;;21.30;99.90;;;;;;5073235;28;20336;-70
2022/01/13 03:48:34;;;;;;;;;;;21.40;99.90;;;;;;5072355;28;19908;-69
2022/01/13 03:51:00;;;;;;;;;;;21.30;99.90;;;;;;5073516;28;19908;-70
2022/01/13 03:53:27;;;;;;;;;;;21.30;99.90;;;;;;5073705;28;20372;-71
2022/01/13 03:56:09;;;;;;;;;;;21.40;99.90;;;;;;5073215;28;20381;-72
2022/01/13 03:58:53;;;;;;;;;;;21.50;99.90;;;;;;5073405;28;19909;-70
2022/01/13 04:01:23;;;;;;;;;;;21.40;99.90;;;;;;5073435;28;19915;-70
2022/01/13 04:03:50;;;;;;;;;;;21.50;99.90;;;;;;5073023;28;19908;-70
2022/01/13 04:06:16;;;;;;;;;;;21.50;99.90;;;;;;5073148;28;20282;-71
2022/01/13 04:08:47;;;;;;;;;;;21.50;99.90;;;;;;5073300;28;19918;-72
2022/01/13 04:11:16;;;;;;;;;;;21.50;99.90;;;;;;5073171;28;19940;-71
2022/01/13 04:16:16;;;;;;;;;;;21.50;99.90;;;;;;5072967;28;19908;-70
2022/01/13 04:18:42;;;;;;;;;;;21.40;99.90;;;;;;5073018;28;19916;-70
2022/01/13 04:21:09;;;;;;;;;;;21.40;99.90;;;;;;5072975;28;19908;-70
2022/01/13 04:23:36;;;;;;;;;;;21.40;99.90;;;;;;5072896;28;19951;-71
2022/01/13 04:26:07;;;;;;;;;;;21.40;99.90;;;;;;5072758;28;19923;-70
2022/01/13 04:28:34;;;;;;;;;;;21.40;99.90;;;;;;5072922;28;20352;-71
2022/01/13 04:31:01;;;;;;;;;;;21.50;99.90;;;;;;5072824;28;19908;-70
2022/01/13 04:33:29;;;;;;;;;;;21.40;99.90;;;;;;5072702;28;19912;-70
2022/01/13 04:35:57;;;;;;;;;;;21.40;99.90;;;;;;5072889;28;19908;-70
2022/01/13 04:38:24;;;;;;;;;;;21.30;99.90;;;;;;5073041;28;19916;-70
2022/01/13 04:40:55;;;;;;;;;;;21.40;99.90;;;;;;5072726;28;19917;-71
2022/01/13 04:43:23;;;;;;;;;;;21.30;99.90;;;;;;5072591;28;19912;-70
2022/01/13 04:45:49;;;;;;;;;;;21.30;99.90;;;;;;5072369;28;19925;-70
2022/01/13 04:48:16;;;;;;;;;;;21.40;99.90;;;;;;5072575;28;19909;-71
2022/01/13 04:50:44;;;;;;;;;;;21.50;99.90;;;;;;5072549;28;19909;-71
2022/01/13 04:53:11;;;;;;;;;;;21.50;99.90;;;;;;5072729;28;19909;-71
2022/01/13 04:55:38;;;;;;;;;;;21.50;99.90;;;;;;5072419;28;19916;-70
2022/01/13 04:58:06;;;;;;;;;;;21.50;99.90;;;;;;5072115;28;20317;-70
2022/01/13 05:00:33;;;;;;;;;;;21.50;99.90;;;;;;5072032;28;19909;-71
2022/01/13 05:03:00;;;;;;;;;;;21.50;99.90;;;;;;5072637;28;19958;-71
2022/01/13 05:05:27;;;;;;;;;;;21.60;99.90;;;;;;5071043;28;20363;-72
2022/01/13 05:07:53;;;;;;;;;;;21.70;99.90;;;;;;5104610;28;19955;-71
2022/01/13 05:10:20;;;;;;;;;;;21.70;99.90;;;;;;5072215;28;19942;-71
2022/01/13 05:12:53;;;;;;;;;;;21.70;99.90;;;;;;5072792;28;20400;-72
2022/01/13 05:15:24;;;;;;;;;;;21.70;99.90;;;;;;5072367;28;19916;-71
2022/01/13 05:20:28;;;;;;;;;;;21.90;99.90;;;;;;5072187;28;20317;-72
2022/01/13 05:22:55;;;;;;;;;;;21.80;99.90;;;;;;5072483;28;19954;-71
2022/01/13 05:25:22;;;;;;;;;;;21.80;99.90;;;;;;5072278;28;19958;-72
2022/01/13 05:27:49;;;;;;;;;;;21.90;99.90;;;;;;5071881;28;19908;-72
2022/01/13 05:30:17;;;;;;;;;;;22.00;99.90;;;;;;5072507;28;19909;-71
2022/01/13 05:32:45;;;;;;;;;;;22.00;99.90;;;;;;5072119;28;19909;-72
2022/01/13 05:35:12;;;;;;;;;;;22.00;99.90;;;;;;5072152;28;19996;-72
2022/01/13 05:37:39;;;;;;;;;;;22.10;99.90;;;;;;5072236;28;19915;-71
2022/01/13 05:40:06;;;;;;;;;;;22.00;99.90;;;;;;5072116;28;19914;-72
2022/01/13 05:42:32;;;;;;;;;;;22.10;99.90;;;;;;5072098;28;19908;-73
2022/01/13 05:45:01;;;;;;;;;;;22.00;99.90;;;;;;5072106;28;19912;-73
2022/01/13 05:47:28;;;;;;;;;;;22.10;99.90;;;;;;5072152;28;19966;-73
2022/01/13 05:49:54;;;;;;;;;;;22.10;99.90;;;;;;5071798;28;19915;-73
2022/01/13 05:52:21;;;;;;;;;;;22.00;99.90;;;;;;5069588;28;20008;-73
2022/01/13 05:54:48;;;;;;;;;;;22.00;99.90;;;;;;5069873;28;19912;-73
2022/01/13 05:57:14;;;;;;;;;;;22.00;99.90;;;;;;5069967;28;19995;-72
2022/01/13 05:59:41;;;;;;;;;;;21.90;99.90;;;;;;5069918;28;19913;-73
2022/01/13 06:02:08;;;;;;;;;;;21.90;99.90;;;;;;5069697;28;19955;-73
2022/01/13 06:04:34;;;;;;;;;;;22.00;99.90;;;;;;5069438;28;19916;-73
2022/01/13 06:07:01;;;;;;;;;;;22.00;99.90;;;;;;5070013;28;19919;-73
2022/01/13 06:09:28;;;;;;;;;;;22.00;99.90;;;;;;5069708;28;19955;-73
2022/01/13 06:12:01;;;;;;;;;;;22.00;99.90;;;;;;5072243;28;19920;-73
2022/01/13 06:14:28;;;;;;;;;;;22.00;99.90;;;;;;5073433;28;20007;-73
2022/01/13 06:16:54;;;;;;;;;;;22.10;99.90;;;;;;5073189;28;19916;-73
2022/01/13 06:19:21;;;;;;;;;;;22.00;99.90;;;;;;5073119;28;19909;-72
2022/01/13 06:21:48;;;;;;;;;;;21.90;99.90;;;;;;5072936;28;20533;-73
2022/01/13 06:24:15;;;;;;;;;;;21.80;99.90;;;;;;5073385;28;20318;-73
2022/01/13 06:26:42;;;;;;;;;;;21.80;99.90;;;;;;5073123;28;20353;-71
2022/01/13 06:29:08;;;;;;;;;;;21.90;99.90;;;;;;5073318;28;20440;-71
2022/01/13 06:31:35;;;;;;;;;;;22.00;99.90;;;;;;5072888;28;19916;-71
2022/01/13 06:34:02;;;;;;;;;;;21.90;99.90;;;;;;5073020;28;19915;-72
2022/01/13 06:36:31;;;;;;;;;;;21.80;99.90;;;;;;5073404;28;19962;-72
2022/01/13 06:38:58;;;;;;;;;;;21.80;99.90;;;;;;5073573;28;20341;-71
2022/01/13 06:41:25;;;;;;;;;;;21.80;99.90;;;;;;5073228;28;19915;-71
2022/01/13 06:43:52;;;;;;;;;;;21.70;99.90;;;;;;5072477;28;19908;-71
2022/01/13 06:46:18;;;;;;;;;;;21.70;99.90;;;;;;5073030;28;19921;-71
2022/01/13 06:48:48;;;;;;;;;;;21.80;99.90;;;;;;5072930;28;19947;-71
2022/01/13 06:51:15;;;;;;;;;;;21.60;99.90;;;;;;5072927;28;19917;-72
2022/01/13 06:53:41;;;;;;;;;;;21.70;99.90;;;;;;5072783;28;19919;-71
2022/01/13 06:56:10;;;;;;;;;;;21.80;99.90;;;;;;5072261;28;20374;-71
2022/01/13 06:58:37;;;;;;;;;;;21.80;99.90;;;;;;5104700;28;19995;-72
2022/01/13 07:01:04;;;;;;;;;;;21.70;99.90;;;;;;5072545;28;19915;-71
2022/01/13 07:03:30;;;;;;;;;;;21.80;99.90;;;;;;5072167;28;20334;-70
2022/01/13 07:05:57;;;;;;;;;;;21.70;99.90;;;;;;5071942;28;19921;-70
2022/01/13 07:08:24;;;;;;;;;;;21.90;99.90;;;;;;5072424;28;19913;-70
2022/01/13 07:10:50;;;;;;;;;;;21.90;99.90;;;;;;5072021;28;19931;-70
2022/01/13 07:13:17;;;;;;;;;;;21.90;99.90;;;;;;5072365;28;19908;-71
2022/01/13 07:15:45;;;;;;;;;;;21.80;99.90;;;;;;5104742;28;19952;-71
2022/01/13 07:18:12;;;;;;;;;;;21.70;99.90;;;;;;5071867;28;19913;-70
2022/01/13 07:20:40;;;;;;;;;;;21.80;99.90;;;;;;5072288;28;20412;-71
2022/01/13 07:23:07;;;;;;;;;;;21.90;99.90;;;;;;5070297;28;20283;-71
2022/01/13 07:25:33;;;;;;;;;;;21.90;99.90;;;;;;5071900;28;20506;-71
2022/01/13 07:28:00;;;;;;;;;;;21.90;99.90;;;;;;5071778;28;19958;-71
2022/01/13 07:30:27;;;;;;;;;;;21.80;99.90;;;;;;5072083;28;19908;-70
2022/01/13 07:32:53;;;;;;;;;;;21.80;99.90;;;;;;5071691;28;20275;-71
2022/01/13 07:35:20;;;;;;;;;;;21.80;99.90;;;;;;5071775;28;20404;-70
2022/01/13 07:37:47;;;;;;;;;;;21.80;99.90;;;;;;5071389;28;19908;-71
2022/01/13 07:40:15;;;;;;;;;;;21.70;99.90;;;;;;5104089;28;20264;-70
2022/01/13 07:42:42;;;;;;;;;;;21.70;99.90;;;;;;5071661;28;19916;-70
2022/01/13 07:45:10;;;;;;;;;;;21.70;99.90;;;;;;5071606;28;20442;-71
2022/01/13 07:47:37;;;;;;;;;;;21.60;99.90;;;;;;5071536;28;19966;-71
2022/01/13 07:50:05;;;;;;;;;;;21.70;99.90;;;;;;5071034;28;19912;-71
2022/01/13 07:52:31;;;;;;;;;;;21.70;99.90;;;;;;5071435;28;19953;-70
2022/01/13 07:54:58;;;;;;;;;;;21.70;99.90;;;;;;5071654;28;19916;-71
2022/01/13 07:57:25;;;;;;;;;;;21.70;99.90;;;;;;5071451;28;20282;-70
2022/01/13 07:59:52;;;;;;;;;;;21.70;99.90;;;;;;5071191;28;19913;-70
2022/01/13 08:02:19;;;;;;;;;;;21.80;99.90;;;;;;5070981;28;19920;-70
2022/01/13 08:04:46;;;;;;;;;;;21.70;99.90;;;;;;5071402;28;20321;-71
2022/01/13 08:07:13;;;;;;;;;;;21.70;99.90;;;;;;5073213;28;20323;-70
2022/01/13 08:09:39;;;;;;;;;;;21.70;99.90;;;;;;5073020;28;20287;-70
2022/01/13 08:12:06;;;;;;;;;;;21.60;99.90;;;;;;5073243;28;19912;-70
2022/01/13 08:14:33;;;;;;;;;;;21.50;99.90;;;;;;5073385;28;19908;-70
2022/01/13 08:17:02;;;;;;;;;;;21.60;99.90;;;;;;5072883;28;19909;-70
2022/01/13 08:19:48;;;;;;;;;;;21.60;99.90;;;;;;5073106;28;19909;-70
2022/01/13 08:22:15;;;;;;;;;;;21.50;99.90;;;;;;5073202;28;19908;-70
2022/01/13 08:24:43;;;;;;;;;;;21.50;99.90;;;;;;5072963;28;20252;-70
2022/01/13 08:27:10;;;;;;;;;;;21.40;99.90;;;;;;5072925;28;19919;-70
2022/01/13 08:29:36;;;;;;;;;;;21.40;99.90;;;;;;5072900;28;19908;-70
2022/01/13 08:32:03;;;;;;;;;;;21.40;99.90;;;;;;5072638;28;19912;-70
2022/01/13 08:34:30;;;;;;;;;;;21.40;99.90;;;;;;5072475;28;19914;-70
2022/01/13 08:36:56;;;;;;;;;;;21.40;99.90;;;;;;5072795;28;19909;-71
2022/01/13 08:39:23;;;;;;;;;;;21.40;99.90;;;;;;5072680;28;20499;-70
2022/01/13 08:41:50;;;;;;;;;;;21.40;99.90;;;;;;5072708;28;20321;-70
2022/01/13 08:44:17;;;;;;;;;;;21.40;99.90;;;;;;5072882;28;19909;-70
2022/01/13 08:46:43;;;;;;;;;;;21.40;99.90;;;;;;5072759;28;19916;-71
2022/01/13 08:49:10;;;;;;;;;;;21.50;99.90;;;;;;5072790;28;20363;-70
2022/01/13 08:51:37;;;;;;;;;;;21.50;99.90;;;;;;5072705;28;20294;-70
2022/01/13 08:54:03;;;;;;;;;;;21.60;99.90;;;;;;5072378;28;19916;-71
2022/01/13 08:56:30;;;;;;;;;;;21.60;99.90;;;;;;5072805;28;19909;-71
2022/01/13 08:58:57;;;;;;;;;;;21.70;99.90;;;;;;5072729;28;20013;-70
2022/01/13 09:01:23;;;;;;;;;;;21.70;99.90;;;;;;5072463;28;19909;-70
2022/01/13 09:03:50;;;;;;;;;;;21.70;99.90;;;;;;5072093;28;19920;-70
2022/01/13 09:06:17;;;;;;;;;;;21.80;99.90;;;;;;5072483;28;19917;-70
2022/01/13 09:08:43;;;;;;;;;;;21.90;99.90;;;;;;5072504;28;19909;-70
2022/01/13 09:11:10;;;;;;;;;;;21.80;99.90;;;;;;5072300;28;19954;-70
2022/01/13 09:13:38;;;;;;;;;;;21.80;99.90;;;;;;5072472;28;19915;-69
2022/01/13 09:16:13;;;;;;;;;;;21.80;99.90;;;;;;5072073;28;19962;-70
2022/01/13 09:21:13;;;;;;;;;;;21.80;99.90;;;;;;5072318;28;20305;-69
2022/01/13 09:23:40;;;;;;;;;;;21.80;99.90;;;;;;5072350;28;19966;-70
2022/01/13 09:26:07;;;;;;;;;;;21.80;99.90;;;;;;5072200;28;19924;-70
2022/01/13 09:28:34;;;;;;;;;;;21.80;99.90;;;;;;5072288;28;19908;-69
2022/01/13 09:31:01;;;;;;;;;;;21.80;99.90;;;;;;5072286;28;20345;-69
2022/01/13 09:33:28;;;;;;;;;;;21.80;99.90;;;;;;5072247;28;19912;-70
2022/01/13 09:35:55;;;;;;;;;;;21.80;99.90;;;;;;5071918;28;19909;-69
2022/01/13 09:38:21;;;;;;;;;;;21.80;99.90;;;;;;5072445;28;20350;-69
2022/01/13 09:40:52;;;;;;;;;;;21.80;99.90;;;;;;5072234;28;19959;-69
2022/01/13 09:43:27;;;;;;;;;;;21.80;99.90;;;;;;5072309;28;19913;-70
2022/01/13 09:45:55;;;;;;;;;;;21.70;99.90;;;;;;5072965;28;20016;-70
2022/01/13 09:48:22;;;;;;;;;;;21.70;99.90;;;;;;5076121;28;19913;-70
2022/01/13 09:50:48;;;;;;;;;;;21.80;99.90;;;;;;5076153;28;19913;-70
2022/01/13 09:53:15;;;;;;;;;;;21.80;99.90;;;;;;5075980;28;20007;-70
2022/01/13 09:55:43;;;;;;;;;;;21.80;99.90;;;;;;5076220;28;19947;-71
2022/01/13 09:58:13;;;;;;;;;;;21.80;99.90;;;;;;5075791;28;19908;-71
2022/01/13 10:00:40;;;;;;;;;;;21.80;99.90;;;;;;5075700;28;19915;-71
2022/01/13 10:03:14;;;;;;;;;;;21.80;99.90;;;;;;5075647;28;20006;-71
2022/01/13 10:06:10;;;;;;;;;;;21.80;99.90;;;;;;5075727;28;19963;-71
2022/01/13 10:08:43;;;;;;;;;;;21.70;99.90;;;;;;5070690;28;19909;-71
2022/01/13 10:11:26;;;;;;;;;;;21.80;99.90;;;;;;5075507;28;20378;-71
2022/01/13 10:14:02;;;;;;;;;;;21.80;99.90;;;;;;5075683;28;19915;-71
2022/01/13 10:16:29;;;;;;;;;;;21.80;99.90;;;;;;5075638;28;19917;-71
2022/01/13 10:18:56;;;;;;;;;;;21.80;99.90;;;;;;5075859;28;19996;-71
2022/01/13 10:21:23;;;;;;;;;;;21.80;99.90;;;;;;5075433;28;19908;-71
2022/01/13 10:24:12;;;;;;;;;;;21.80;99.90;;;;;;5075433;28;19994;-71
2022/01/13 10:26:40;;;;;;;;;;;21.70;99.90;;;;;;5077482;28;20004;-72
2022/01/13 10:29:08;;;;;;;;;;;21.70;99.90;;;;;;5075614;28;19915;-71
2022/01/13 10:31:49;;;;;;;;;;;21.70;99.90;;;;;;5075457;28;19986;-70
2022/01/13 10:34:23;;;;;;;;;;;21.70;99.90;;;;;;5075548;28;20611;-71
2022/01/13 10:37:04;;;;;;;;;;;21.70;99.90;;;;;;5075358;28;19916;-70
2022/01/13 10:39:48;;;;;;;;;;;21.70;99.90;;;;;;5075532;28;19909;-71
2022/01/13 10:45:02;;;;;;;;;;;21.60;99.90;;;;;;5064294;28;19913;-70
2022/01/13 10:50:52;;;;;;;;;;;21.60;99.90;;;;;;5075530;28;19916;-71
2022/01/13 10:53:29;;;;;;;;;;;21.60;99.90;;;;;;5074838;28;19908;-70
2022/01/13 10:56:00;;;;;;;;;;;21.50;99.90;;;;;;5074567;28;19913;-71
2022/01/13 10:58:28;;;;;;;;;;;21.60;99.90;;;;;;5074581;28;19947;-71
2022/01/13 11:00:56;;;;;;;;;;;21.60;99.90;;;;;;5074603;28;19908;-71
2022/01/13 11:03:24;;;;;;;;;;;21.50;99.90;;;;;;5074455;28;19909;-71
2022/01/13 11:06:01;;;;;;;;;;;21.60;99.90;;;;;;5074381;28;20381;-72
2022/01/13 11:08:31;;;;;;;;;;;21.60;99.90;;;;;;5074544;28;19916;-71
2022/01/13 11:11:02;;;;;;;;;;;21.70;99.90;;;;;;5074339;28;20158;-71
2022/01/13 11:13:32;;;;;;;;;;;21.70;99.90;;;;;;5073991;28;19913;-72
2022/01/13 11:15:59;;;;;;;;;;;21.70;99.90;;;;;;5073993;28;20680;-71
2022/01/13 11:18:27;;;;;;;;;;;21.70;99.90;;;;;;5074237;28;19999;-71
2022/01/13 11:20:54;;;;;;;;;;;21.70;99.90;;;;;;5074236;28;19908;-71
2022/01/13 11:23:21;;;;;;;;;;;21.60;99.90;;;;;;5073893;28;19908;-70
2022/01/13 11:25:50;;;;;;;;;;;21.60;99.90;;;;;;5073642;28;19966;-70
2022/01/13 11:28:17;;;;;;;;;;;21.50;99.90;;;;;;5074101;28;19970;-70
2022/01/13 11:30:43;;;;;;;;;;;21.50;99.90;;;;;;5074394;28;19940;-70
2022/01/13 11:33:10;;;;;;;;;;;21.50;99.90;;;;;;5073944;28;19916;-70
2022/01/13 11:35:45;;;;;;;;;;;21.40;99.90;;;;;;5074109;28;20353;-71
2022/01/13 11:38:13;;;;;;;;;;;21.40;99.90;;;;;;5074106;28;19908;-70
2022/01/13 11:40:41;;;;;;;;;;;21.40;99.90;;;;;;5073979;28;19912;-70
2022/01/13 11:43:18;;;;;;;;;;;21.40;99.90;;;;;;5073786;28;20317;-70
2022/01/13 11:45:47;;;;;;;;;;;21.40;99.90;;;;;;5073855;28;20003;-70
2022/01/13 11:48:17;;;;;;;;;;;21.40;99.90;;;;;;5073256;28;19909;-70
2022/01/13 11:50:53;;;;;;;;;;;21.40;99.90;;;;;;5073856;28;19969;-71
2022/01/13 11:53:19;;;;;;;;;;;21.40;99.90;;;;;;5073636;28;20489;-70
2022/01/13 11:55:50;;;;;;;;;;;21.40;99.90;;;;;;5073805;28;19995;-70
2022/01/13 11:58:18;;;;;;;;;;;21.40;99.90;;;;;;5073776;28;19912;-71
2022/01/13 12:00:46;;;;;;;;;;;21.50;99.90;;;;;;5073677;28;20264;-72
2022/01/13 12:03:42;;;;;;;;;;;21.50;99.90;;;;;;5073039;28;19908;-72
2022/01/13 12:06:28;;;;;;;;;;;21.50;99.90;;;;;;5068473;28;20023;-71
2022/01/13 12:08:57;;;;;;;;;;;21.50;99.90;;;;;;5072628;28;19970;-71
2022/01/13 12:11:39;;;;;;;;;;;21.50;99.90;;;;;;5073200;28;20370;-72
2022/01/13 12:14:32;;;;;;;;;;;21.50;99.90;;;;;;5073144;28;19912;-69
2022/01/13 12:17:04;;;;;;;;;;;21.50;99.90;;;;;;5073121;28;19916;-72
2022/01/13 12:19:38;;;;;;;;;;;21.60;99.90;;;;;;5073233;28;19915;-72
2022/01/13 12:22:11;;;;;;;;;;;21.60;99.90;;;;;;5072871;28;20303;-72
2022/01/13 12:24:43;;;;;;;;;;;21.60;99.90;;;;;;5072953;28;19951;-72
2022/01/13 12:27:10;;;;;;;;;;;21.60;99.90;;;;;;5073206;28;19920;-72
2022/01/13 12:29:43;;;;;;;;;;;21.60;99.90;;;;;;5072914;28;20318;-72
2022/01/13 12:32:10;;;;;;;;;;;21.60;99.90;;;;;;5072171;28;20363;-72
2022/01/13 12:34:39;;;;;;;;;;;21.60;99.90;;;;;;5073090;28;19908;-70
2022/01/13 12:37:11;;;;;;;;;;;21.60;99.90;;;;;;5072893;28;20431;-69
2022/01/13 12:39:42;;;;;;;;;;;21.60;99.90;;;;;;5070983;28;19951;-70
2022/01/13 12:42:21;;;;;;;;;;;21.60;99.90;;;;;;5069199;28;19919;-70
2022/01/13 12:47:34;;;;;;;;;;;21.70;99.90;;;;;;5070296;28;19969;-69
2022/01/13 12:50:00;;;;;;;;;;;21.70;99.90;;;;;;5070552;28;19915;-70
2022/01/13 12:52:27;;;;;;;;;;;21.70;99.90;;;;;;5070140;28;19909;-70
2022/01/13 12:54:56;;;;;;;;;;;21.70;99.90;;;;;;5070833;28;19908;-70
2022/01/13 12:57:24;;;;;;;;;;;21.70;99.90;;;;;;5071536;28;20368;-70
2022/01/13 12:59:59;;;;;;;;;;;21.80;99.90;;;;;;5079039;28;20368;-70
2022/01/13 13:02:26;;;;;;;;;;;21.80;99.90;;;;;;5070707;28;20007;-70
2022/01/13 13:04:52;;;;;;;;;;;21.90;99.90;;;;;;5070336;28;20004;-69
2022/01/13 13:07:20;;;;;;;;;;;21.90;99.90;;;;;;5070680;28;19909;-70
2022/01/13 13:09:46;;;;;;;;;;;21.90;99.90;;;;;;5070146;28;20355;-71
2022/01/13 13:12:24;;;;;;;;;;;21.90;99.90;;;;;;5070545;28;19909;-70
2022/01/13 13:17:37;;;;;;;;;;;21.80;99.90;;;;;;5070486;28;20042;-70
2022/01/13 13:20:05;;;;;;;;;;;21.80;99.90;;;;;;5071327;28;19908;-70
2022/01/13 13:22:49;;;;;;;;;;;21.70;99.90;;;;;;5074918;28;20359;-71
2022/01/13 13:25:32;;;;;;;;;;;21.60;99.90;;;;;;5074459;28;19920;-72
2022/01/13 13:28:18;;;;;;;;;;;21.40;99.90;;;;;;5074422;28;19913;-71
2022/01/13 13:30:49;;;;;;;;;;;21.30;99.90;;;;;;5070027;28;19913;-71
2022/01/13 13:33:17;;;;;;;;;;;21.00;99.90;;;;;;5074313;28;19962;-71
2022/01/13 13:35:47;;;;;;;;;;;20.90;99.90;;;;;;5074332;28;19924;-71
2022/01/13 13:38:14;;;;;;;;;;;20.70;99.90;;;;;;5074363;28;19955;-70
2022/01/13 13:40:44;;;;;;;;;;;20.60;99.90;;;;;;5075241;28;20389;-71
2022/01/13 13:43:12;;;;;;;;;;;20.50;99.90;;;;;;5075008;28;20347;-72
2022/01/13 13:45:39;;;;;;;;;;;20.40;99.90;;;;;;5073538;28;19920;-72
2022/01/13 13:48:06;;;;;;;;;;;20.40;99.90;;;;;;5074170;28;20288;-71
2022/01/13 13:50:33;;;;;;;;;;;20.40;99.90;;;;;;5074181;28;20378;-71
2022/01/13 13:53:07;;;;;;;;;;;20.40;99.90;;;;;;5073939;28;19912;-72
2022/01/13 13:55:34;;;;;;;;;;;20.40;99.90;;;;;;5073990;28;19913;-71
2022/01/13 13:58:01;;;;;;;;;;;20.50;99.90;;;;;;5073472;28;19920;-71
2022/01/13 14:00:28;;;;;;;;;;;20.40;99.90;;;;;;5073750;28;19912;-70
2022/01/13 14:02:59;;;;;;;;;;;20.30;99.90;;;;;;5073794;28;19916;-71
2022/01/13 14:05:38;;;;;;;;;;;20.40;99.90;;;;;;5073546;28;19971;-71
2022/01/13 14:08:06;;;;;;;;;;;20.40;99.90;;;;;;5073445;28;19915;-71
2022/01/13 14:10:33;;;;;;;;;;;20.50;99.90;;;;;;5073061;28;19999;-71
2022/01/13 14:13:04;;;;;;;;;;;20.60;99.90;;;;;;5073546;28;19916;-71
2022/01/13 14:15:35;;;;;;;;;;;20.70;99.90;;;;;;5073588;28;20347;-71
2022/01/13 14:18:08;;;;;;;;;;;20.70;99.90;;;;;;5073226;28;19983;-72
2022/01/13 14:20:36;;;;;;;;;;;20.60;99.90;;;;;;5073366;28;19913;-71
2022/01/13 14:23:05;;;;;;;;;;;20.50;99.90;;;;;;5073161;28;19913;-72
2022/01/13 14:25:37;;;;;;;;;;;20.60;99.90;;;;;;5073230;28;20109;-71
2022/01/13 14:28:09;;;;;;;;;;;20.50;99.90;;;;;;5073203;28;19924;-70
2022/01/13 14:30:35;;;;;;;;;;;20.40;99.90;;;;;;5073137;28;19913;-72
2022/01/13 14:33:32;;;;;;;;;;;20.20;99.90;;;;;;5072323;28;20001;-71
2022/01/13 14:36:05;;;;;;;;;;;20.30;99.90;;;;;;5067991;28;19912;-71
2022/01/13 14:38:40;;;;;;;;;;;20.20;99.90;;;;;;5072863;28;19954;-72
2022/01/13 14:41:07;;;;;;;;;;;20.30;99.90;;;;;;5072936;28;19935;-71
2022/01/13 14:43:34;;;;;;;;;;;20.20;99.90;;;;;;5072944;28;19919;-72
2022/01/13 14:46:07;;;;;;;;;;;20.30;99.90;;;;;;5072322;28;19986;-71
2022/01/13 14:48:34;;;;;;;;;;;20.30;99.90;;;;;;5072880;28;19908;-71
2022/01/13 14:51:06;;;;;;;;;;;20.30;99.90;;;;;;5072575;28;19909;-72
2022/01/13 14:53:34;;;;;;;;;;;20.30;99.90;;;;;;5072879;28;19916;-72
2022/01/13 14:56:01;;;;;;;;;;;20.20;99.90;;;;;;5072600;28;19908;-73
2022/01/13 14:58:28;;;;;;;;;;;20.20;99.90;;;;;;5072765;28;19947;-71